sensor_id;sensor_type;location;lat;lon;timestamp;pressure;altitude;pressure_sealevel;temperature;humidity
63019;BME280;49105;46.046;10.760;2023-02-21T00:01:40;96251.09;;;3.39;65.21
63019;BME280;49105;46.046;10.760;2023-02-21T00:04:24;96251.09;;;3.39;65.48
63019;BME280;49105;46.046;10.760;2023-02-21T00:07:08;96253.56;;;3.34;65.38
63019;BME280;49105;46.046;10.760;2023-02-21T00:09:52;96251.53;;;3.05;66.11
63019;BME280;49105;46.046;10.760;2023-02-21T00:12:36;96247.72;;;3.01;66.04
63019;BME280;49105;46.046;10.760;2023-02-21T00:15:23;96240.22;;;3.04;65.86
63019;BME280;49105;46.046;10.760;2023-02-21T00:18:07;96228.41;;;3.02;65.96
63019;BME280;49105;46.046;10.760;2023-02-21T00:20:51;96231.41;;;3.05;66.07
63019;BME280;49105;46.046;10.760;2023-02-21T00:23:35;96238.47;;;2.98;65.96
63019;BME280;49105;46.046;10.760;2023-02-21T00:26:20;96235.84;;;2.98;65.93
63019;BME280;49105;46.046;10.760;2023-02-21T00:29:05;96237.69;;;2.97;66.08
63019;BME280;49105;46.046;10.760;2023-02-21T00:31:49;96228.41;;;3.02;66.06
63019;BME280;49105;46.046;10.760;2023-02-21T00:34:33;96228.34;;;3.08;65.85
63019;BME280;49105;46.046;10.760;2023-02-21T00:37:17;96222.75;;;3.05;65.74
63019;BME280;49105;46.046;10.760;2023-02-21T00:40:01;96219.88;;;2.81;66.07
63019;BME280;49105;46.046;10.760;2023-02-21T00:42:45;96214.47;;;2.76;66.23
63019;BME280;49105;46.046;10.760;2023-02-21T00:45:29;96222.31;;;2.76;66.23
63019;BME280;49105;46.046;10.760;2023-02-21T00:48:19;96229.53;;;2.81;66.01
63019;BME280;49105;46.046;10.760;2023-02-21T00:51:04;96232.53;;;2.84;66.28
63019;BME280;49105;46.046;10.760;2023-02-21T00:53:48;96227.25;;;2.91;66.09
63019;BME280;49105;46.046;10.760;2023-02-21T00:56:31;96225.41;;;2.98;65.91
63019;BME280;49105;46.046;10.760;2023-02-21T01:02:37;96220.38;;;2.96;66.02
63019;BME280;49105;46.046;10.760;2023-02-21T01:05:30;96219.09;;;2.74;66.03
63019;BME280;49105;46.046;10.760;2023-02-21T01:08:14;96225.00;;;2.49;66.44
63019;BME280;49105;46.046;10.760;2023-02-21T01:10:58;96219.22;;;2.41;67.07
63019;BME280;49105;46.046;10.760;2023-02-21T01:13:42;96222.22;;;2.51;66.28
63019;BME280;49105;46.046;10.760;2023-02-21T01:16:29;96217.00;;;2.51;66.38
63019;BME280;49105;46.046;10.760;2023-02-21T01:19:13;96209.56;;;2.48;66.81
63019;BME280;49105;46.046;10.760;2023-02-21T01:21:57;96218.41;;;2.47;66.69
63019;BME280;49105;46.046;10.760;2023-02-21T01:24:41;96212.72;;;2.57;66.45
63019;BME280;49105;46.046;10.760;2023-02-21T01:27:25;96209.88;;;2.65;66.14
63019;BME280;49105;46.046;10.760;2023-02-21T01:30:10;96198.25;;;2.54;66.14
63019;BME280;49105;46.046;10.760;2023-02-21T01:32:54;96203.16;;;2.37;66.56
63019;BME280;49105;46.046;10.760;2023-02-21T01:35:38;96196.16;;;2.31;66.95
63019;BME280;49105;46.046;10.760;2023-02-21T01:38:22;96195.72;;;2.34;66.68
63019;BME280;49105;46.046;10.760;2023-02-21T01:41:06;96191.31;;;2.35;66.82
63019;BME280;49105;46.046;10.760;2023-02-21T01:44:00;96190.50;;;2.41;66.91
63019;BME280;49105;46.046;10.760;2023-02-21T01:46:44;96187.28;;;2.39;66.90
63019;BME280;49105;46.046;10.760;2023-02-21T01:49:29;96187.16;;;2.20;66.87
63019;BME280;49105;46.046;10.760;2023-02-21T01:52:15;96185.97;;;2.10;67.11
63019;BME280;49105;46.046;10.760;2023-02-21T01:54:59;96182.94;;;2.19;67.25
63019;BME280;49105;46.046;10.760;2023-02-21T01:57:46;96184.72;;;2.26;66.82
63019;BME280;49105;46.046;10.760;2023-02-21T02:00:40;96182.06;;;2.39;66.37
63019;BME280;49105;46.046;10.760;2023-02-21T02:03:24;96181.84;;;2.40;66.24
63019;BME280;49105;46.046;10.760;2023-02-21T02:06:12;96180.50;;;2.24;66.84
63019;BME280;49105;46.046;10.760;2023-02-21T02:08:57;96174.94;;;2.14;67.24
63019;BME280;49105;46.046;10.760;2023-02-21T02:27:16;96162.03;;;2.19;66.59
63019;BME280;49105;46.046;10.760;2023-02-21T02:35:30;96152.84;;;2.10;66.82
63019;BME280;49105;46.046;10.760;2023-02-21T02:44:23;96153.25;;;2.07;66.99
63019;BME280;49105;46.046;10.760;2023-02-21T02:46:54;96153.44;;;2.12;66.75
63019;BME280;49105;46.046;10.760;2023-02-21T02:49:28;96146.59;;;2.11;67.06
63019;BME280;49105;46.046;10.760;2023-02-21T02:52:03;96144.63;;;2.07;67.17
63019;BME280;49105;46.046;10.760;2023-02-21T02:54:32;96140.06;;;1.82;67.15
63019;BME280;49105;46.046;10.760;2023-02-21T02:57:06;96134.47;;;1.72;67.64
63019;BME280;49105;46.046;10.760;2023-02-21T02:59:52;96138.47;;;1.81;67.27
63019;BME280;49105;46.046;10.760;2023-02-21T03:02:38;96128.78;;;1.88;67.13
63019;BME280;49105;46.046;10.760;2023-02-21T03:08:31;96129.59;;;1.89;66.96
63019;BME280;49105;46.046;10.760;2023-02-21T03:11:10;96139.06;;;1.83;67.43
63019;BME280;49105;46.046;10.760;2023-02-21T03:16:22;96133.63;;;1.91;67.01
63019;BME280;49105;46.046;10.760;2023-02-21T03:19:11;96133.84;;;1.90;67.47
63019;BME280;49105;46.046;10.760;2023-02-21T03:22:01;96133.78;;;1.96;67.22
63019;BME280;49105;46.046;10.760;2023-02-21T03:24:39;96130.16;;;1.97;67.16
63019;BME280;49105;46.046;10.760;2023-02-21T03:27:07;96129.00;;;1.87;67.23
63019;BME280;49105;46.046;10.760;2023-02-21T03:29:37;96140.91;;;1.63;67.84
63019;BME280;49105;46.046;10.760;2023-02-21T03:32:10;96123.88;;;1.54;67.75
63019;BME280;49105;46.046;10.760;2023-02-21T03:34:42;96125.69;;;1.53;67.58
63019;BME280;49105;46.046;10.760;2023-02-21T03:37:44;96124.47;;;1.49;68.00
63019;BME280;49105;46.046;10.760;2023-02-21T03:40:22;96118.03;;;1.52;68.36
63019;BME280;49105;46.046;10.760;2023-02-21T03:42:56;96119.25;;;1.56;68.07
63019;BME280;49105;46.046;10.760;2023-02-21T03:45:23;96114.63;;;1.58;67.48
63019;BME280;49105;46.046;10.760;2023-02-21T03:47:55;96111.81;;;1.59;67.45
63019;BME280;49105;46.046;10.760;2023-02-21T03:50:20;96113.63;;;1.59;67.76
63019;BME280;49105;46.046;10.760;2023-02-21T03:52:57;96116.47;;;1.37;67.82
63019;BME280;49105;46.046;10.760;2023-02-21T03:55:32;96111.06;;;1.32;68.70
63019;BME280;49105;46.046;10.760;2023-02-21T03:57:57;96106.44;;;1.41;68.21
63019;BME280;49105;46.046;10.760;2023-02-21T04:00:32;96097.59;;;1.42;67.60
63019;BME280;49105;46.046;10.760;2023-02-21T04:03:04;96107.25;;;1.41;67.85
63019;BME280;49105;46.046;10.760;2023-02-21T04:05:29;96108.25;;;1.40;67.54
63019;BME280;49105;46.046;10.760;2023-02-21T04:08:04;96105.03;;;1.38;67.98
63019;BME280;49105;46.046;10.760;2023-02-21T04:10:35;96097.41;;;1.30;67.92
63019;BME280;49105;46.046;10.760;2023-02-21T04:13:01;96097.00;;;1.27;68.00
63019;BME280;49105;46.046;10.760;2023-02-21T04:18:48;96101.63;;;1.31;68.09
63019;BME280;49105;46.046;10.760;2023-02-21T04:21:26;96104.22;;;1.31;67.56
63019;BME280;49105;46.046;10.760;2023-02-21T04:24:00;96098.81;;;1.33;68.40
63019;BME280;49105;46.046;10.760;2023-02-21T04:26:38;96100.41;;;1.34;67.89
63019;BME280;49105;46.046;10.760;2023-02-21T04:29:04;96101.03;;;1.29;67.83
63019;BME280;49105;46.046;10.760;2023-02-21T04:31:39;96100.03;;;1.30;68.23
63019;BME280;49105;46.046;10.760;2023-02-21T04:34:10;96095.41;;;1.39;68.09
63019;BME280;49105;46.046;10.760;2023-02-21T04:36:36;96094.78;;;1.50;67.79
63019;BME280;49105;46.046;10.760;2023-02-21T04:39:03;96085.75;;;1.53;67.78
63019;BME280;49105;46.046;10.760;2023-02-21T04:41:34;96094.16;;;1.55;68.00
63019;BME280;49105;46.046;10.760;2023-02-21T04:44:09;96091.16;;;1.58;67.88
63019;BME280;49105;46.046;10.760;2023-02-21T04:46:37;96087.13;;;1.55;67.53
63019;BME280;49105;46.046;10.760;2023-02-21T04:49:02;96078.72;;;1.53;67.64
63019;BME280;49105;46.046;10.760;2023-02-21T04:51:37;96089.56;;;1.43;67.71
63019;BME280;49105;46.046;10.760;2023-02-21T04:54:03;96092.56;;;1.47;67.58
63019;BME280;49105;46.046;10.760;2023-02-21T04:56:29;96089.16;;;1.53;67.25
63019;BME280;49105;46.046;10.760;2023-02-21T04:59:02;96089.56;;;1.43;67.95
63019;BME280;49105;46.046;10.760;2023-02-21T05:01:37;96088.03;;;1.16;68.13
63019;BME280;49105;46.046;10.760;2023-02-21T05:04:03;96075.78;;;1.03;68.64
63019;BME280;49105;46.046;10.760;2023-02-21T05:06:37;96083.59;;;1.10;68.40
63019;BME280;49105;46.046;10.760;2023-02-21T05:09:13;96083.00;;;1.14;67.93
63019;BME280;49105;46.046;10.760;2023-02-21T05:11:45;96074.78;;;1.17;68.20
63019;BME280;49105;46.046;10.760;2023-02-21T05:14:10;96076.75;;;1.22;68.56
63019;BME280;49105;46.046;10.760;2023-02-21T05:16:36;96077.16;;;1.26;68.14
63019;BME280;49105;46.046;10.760;2023-02-21T05:19:10;96083.19;;;1.26;67.99
63019;BME280;49105;46.046;10.760;2023-02-21T05:21:39;96074.59;;;1.12;68.49
63019;BME280;49105;46.046;10.760;2023-02-21T05:24:05;96071.59;;;0.95;68.32
63019;BME280;49105;46.046;10.760;2023-02-21T05:26:36;96066.38;;;0.95;68.50
63019;BME280;49105;46.046;10.760;2023-02-21T05:29:08;96065.56;;;0.95;68.83
63019;BME280;49105;46.046;10.760;2023-02-21T05:31:37;96066.38;;;0.95;68.34
63019;BME280;49105;46.046;10.760;2023-02-21T05:34:08;96057.34;;;0.98;68.78
63019;BME280;49105;46.046;10.760;2023-02-21T05:36:43;96061.16;;;0.95;68.50
63019;BME280;49105;46.046;10.760;2023-02-21T05:39:08;96052.31;;;0.90;68.25
63019;BME280;49105;46.046;10.760;2023-02-21T05:41:46;96056.75;;;0.89;68.68
63019;BME280;49105;46.046;10.760;2023-02-21T05:44:21;96055.72;;;0.90;68.57
63019;BME280;49105;46.046;10.760;2023-02-21T05:46:49;96059.53;;;0.94;68.43
63019;BME280;49105;46.046;10.760;2023-02-21T05:49:21;96064.16;;;0.92;68.25
63019;BME280;49105;46.046;10.760;2023-02-21T05:51:53;96068.38;;;0.93;68.60
63019;BME280;49105;46.046;10.760;2023-02-21T05:57:28;96061.56;;;0.92;68.42
63019;BME280;49105;46.046;10.760;2023-02-21T05:59:59;96061.78;;;0.91;68.94
63019;BME280;49105;46.046;10.760;2023-02-21T06:02:37;96057.94;;;0.80;68.66
63019;BME280;49105;46.046;10.760;2023-02-21T06:05:02;96057.53;;;0.77;69.05
63019;BME280;49105;46.046;10.760;2023-02-21T06:07:28;96063.75;;;0.76;69.09
63019;BME280;49105;46.046;10.760;2023-02-21T06:09:53;96058.97;;;0.79;68.93
63019;BME280;49105;46.046;10.760;2023-02-21T06:12:19;96065.78;;;0.87;69.22
63019;BME280;49105;46.046;10.760;2023-02-21T06:14:44;96062.34;;;0.93;68.97
63019;BME280;49105;46.046;10.760;2023-02-21T06:17:22;96063.16;;;1.00;68.60
63019;BME280;49105;46.046;10.760;2023-02-21T06:19:56;96067.97;;;1.03;68.36
63019;BME280;49105;46.046;10.760;2023-02-21T06:22:31;96064.75;;;1.01;68.63
63019;BME280;49105;46.046;10.760;2023-02-21T06:25:09;96062.53;;;0.98;68.98
63019;BME280;49105;46.046;10.760;2023-02-21T06:27:44;96063.97;;;0.87;68.48
63019;BME280;49105;46.046;10.760;2023-02-21T06:30:10;96064.97;;;0.80;68.65
63019;BME280;49105;46.046;10.760;2023-02-21T06:32:35;96065.16;;;0.78;68.74
63019;BME280;49105;46.046;10.760;2023-02-21T06:35:05;96066.78;;;0.79;69.01
63019;BME280;49105;46.046;10.760;2023-02-21T06:37:31;96073.19;;;0.83;69.08
63019;BME280;49105;46.046;10.760;2023-02-21T06:39:57;96069.56;;;0.84;68.67
63019;BME280;49105;46.046;10.760;2023-02-21T06:42:24;96070.78;;;0.88;68.80
63019;BME280;49105;46.046;10.760;2023-02-21T06:44:49;96073.97;;;0.90;68.69
63019;BME280;49105;46.046;10.760;2023-02-21T06:47:21;96085.63;;;0.88;68.94
63019;BME280;49105;46.046;10.760;2023-02-21T06:49:46;96076.38;;;0.85;68.77
63019;BME280;49105;46.046;10.760;2023-02-21T06:52:12;96073.38;;;0.75;68.72
63019;BME280;49105;46.046;10.760;2023-02-21T06:54:40;96072.97;;;0.71;69.15
63019;BME280;49105;46.046;10.760;2023-02-21T06:57:06;96079.41;;;0.76;69.11
63019;BME280;49105;46.046;10.760;2023-02-21T06:59:42;96078.59;;;0.75;69.27
63019;BME280;49105;46.046;10.760;2023-02-21T07:02:14;96079.41;;;0.76;68.91
63019;BME280;49105;46.046;10.760;2023-02-21T07:04:51;96079.97;;;0.78;68.56
63019;BME280;49105;46.046;10.760;2023-02-21T07:07:16;96080.22;;;0.83;69.11
63019;BME280;49105;46.046;10.760;2023-02-21T07:09:51;96077.19;;;0.92;68.95
63019;BME280;49105;46.046;10.760;2023-02-21T07:12:16;96076.00;;;0.88;69.13
63019;BME280;49105;46.046;10.760;2023-02-21T07:14:45;96082.41;;;0.92;68.98
63019;BME280;49105;46.046;10.760;2023-02-21T07:17:16;96074.59;;;0.99;68.65
63019;BME280;49105;46.046;10.760;2023-02-21T07:19:52;96079.19;;;0.97;68.70
63019;BME280;49105;46.046;10.760;2023-02-21T07:22:24;96081.81;;;0.97;69.16
63019;BME280;49105;46.046;10.760;2023-02-21T07:24:56;96072.00;;;0.99;68.81
63019;BME280;49105;46.046;10.760;2023-02-21T07:27:21;96075.97;;;1.02;69.05
63019;BME280;49105;46.046;10.760;2023-02-21T07:29:53;96079.19;;;1.10;68.36
63019;BME280;49105;46.046;10.760;2023-02-21T07:32:21;96072.38;;;1.09;68.66
63019;BME280;49105;46.046;10.760;2023-02-21T07:34:53;96076.19;;;1.13;68.57
63019;BME280;49105;46.046;10.760;2023-02-21T07:37:27;96086.78;;;1.25;68.43
63019;BME280;49105;46.046;10.760;2023-02-21T07:40:02;96085.00;;;1.32;68.61
63019;BME280;49105;46.046;10.760;2023-02-21T07:42:40;96084.78;;;1.40;68.77
63019;BME280;49105;46.046;10.760;2023-02-21T07:45:26;96083.94;;;1.46;68.82
63019;BME280;49105;46.046;10.760;2023-02-21T07:47:58;96086.94;;;1.57;68.44
63019;BME280;49105;46.046;10.760;2023-02-21T07:50:42;96088.69;;;1.76;68.66
63019;BME280;49105;46.046;10.760;2023-02-21T07:53:13;96085.25;;;1.82;68.26
63019;BME280;49105;46.046;10.760;2023-02-21T07:55:38;96084.66;;;1.87;68.43
63019;BME280;49105;46.046;10.760;2023-02-21T07:58:04;96085.22;;;1.95;68.48
63019;BME280;49105;46.046;10.760;2023-02-21T08:00:30;96085.00;;;1.97;68.31
63019;BME280;49105;46.046;10.760;2023-02-21T08:03:02;96084.19;;;2.03;68.34
63019;BME280;49105;46.046;10.760;2023-02-21T08:05:33;96084.34;;;2.08;68.00
63019;BME280;49105;46.046;10.760;2023-02-21T08:08:09;96080.31;;;2.12;68.04
63019;BME280;49105;46.046;10.760;2023-02-21T08:10:40;96080.34;;;2.06;68.34
63019;BME280;49105;46.046;10.760;2023-02-21T08:13:12;96082.19;;;1.98;68.55
63019;BME280;49105;46.046;10.760;2023-02-21T08:15:37;96073.34;;;1.99;68.57
63019;BME280;49105;46.046;10.760;2023-02-21T08:18:03;96081.19;;;1.99;68.57
63019;BME280;49105;46.046;10.760;2023-02-21T08:20:37;96070.72;;;2.06;68.35
63019;BME280;49105;46.046;10.760;2023-02-21T08:23:09;96072.06;;;2.15;68.45
63019;BME280;49105;46.046;10.760;2023-02-21T08:25:34;96073.59;;;2.30;68.04
63019;BME280;49105;46.046;10.760;2023-02-21T08:28:00;96077.13;;;2.48;68.23
63019;BME280;49105;46.046;10.760;2023-02-21T08:30:31;96077.19;;;2.67;68.04
63019;BME280;49105;46.046;10.760;2023-02-21T08:32:56;96077.31;;;2.79;67.52
63019;BME280;49105;46.046;10.760;2023-02-21T08:35:25;96076.50;;;2.78;67.72
63019;BME280;49105;46.046;10.760;2023-02-21T08:37:50;96078.47;;;2.83;67.44
63019;BME280;49105;46.046;10.760;2023-02-21T08:40:25;96071.28;;;2.78;67.52
63019;BME280;49105;46.046;10.760;2023-02-21T08:42:54;96073.66;;;2.80;67.98
63019;BME280;49105;46.046;10.760;2023-02-21T08:45:27;96075.41;;;2.92;67.90
63019;BME280;49105;46.046;10.760;2023-02-21T08:47:56;96061.25;;;3.00;67.75
63019;BME280;49105;46.046;10.760;2023-02-21T08:50:24;96064.31;;;2.97;67.90
63019;BME280;49105;46.046;10.760;2023-02-21T08:52:53;96064.19;;;3.10;68.36
63019;BME280;49105;46.046;10.760;2023-02-21T08:55:19;96059.22;;;3.27;67.86
63019;BME280;49105;46.046;10.760;2023-02-21T08:57:49;96057.34;;;3.53;67.87
63019;BME280;49105;46.046;10.760;2023-02-21T09:00:17;96062.56;;;3.89;67.10
63019;BME280;49105;46.046;10.760;2023-02-21T09:02:48;96049.91;;;4.05;66.84
63019;BME280;49105;46.046;10.760;2023-02-21T09:05:25;96049.47;;;4.08;66.53
63019;BME280;49105;46.046;10.760;2023-02-21T09:11:13;96049.06;;;4.22;66.22
63019;BME280;49105;46.046;10.760;2023-02-21T09:13:41;96049.47;;;4.38;66.50
63019;BME280;49105;46.046;10.760;2023-02-21T09:16:07;96047.31;;;4.46;66.04
63019;BME280;49105;46.046;10.760;2023-02-21T09:18:42;96050.31;;;4.50;66.39
63019;BME280;49105;46.046;10.760;2023-02-21T09:21:14;96046.09;;;4.61;66.16
63019;BME280;49105;46.046;10.760;2023-02-21T09:23:50;96053.00;;;4.85;66.13
63019;BME280;49105;46.046;10.760;2023-02-21T09:26:22;96053.03;;;5.09;65.78
63019;BME280;49105;46.046;10.760;2023-02-21T09:28:52;96043.13;;;5.22;65.44
63019;BME280;49105;46.046;10.760;2023-02-21T09:31:23;96044.03;;;5.28;65.16
63019;BME280;49105;46.046;10.760;2023-02-21T09:33:49;96041.97;;;5.30;64.98
63019;BME280;49105;46.046;10.760;2023-02-21T09:36:20;96046.19;;;5.31;64.61
63019;BME280;49105;46.046;10.760;2023-02-21T09:38:51;96032.03;;;5.32;64.71
63019;BME280;49105;46.046;10.760;2023-02-21T09:41:26;96029.53;;;5.37;64.80
63019;BME280;49105;46.046;10.760;2023-02-21T09:43:58;96029.63;;;5.42;64.80
63019;BME280;49105;46.046;10.760;2023-02-21T09:49:00;96015.25;;;5.57;64.62
63019;BME280;49105;46.046;10.760;2023-02-21T09:51:37;96019.19;;;5.71;64.13
63019;BME280;49105;46.046;10.760;2023-02-21T09:56:57;96007.16;;;5.99;63.67
63019;BME280;49105;46.046;10.760;2023-02-21T09:59:24;96006.31;;;6.10;63.38
63019;BME280;49105;46.046;10.760;2023-02-21T10:08:25;96001.84;;;6.39;62.92
63019;BME280;49105;46.046;10.760;2023-02-21T10:11:00;95998.38;;;6.50;62.94
63019;BME280;49105;46.046;10.760;2023-02-21T10:16:27;95994.47;;;6.69;62.54
63019;BME280;49105;46.046;10.760;2023-02-21T10:19:15;95990.63;;;6.77;62.16
63019;BME280;49105;46.046;10.760;2023-02-21T10:21:46;95987.88;;;6.84;62.00
63019;BME280;49105;46.046;10.760;2023-02-21T10:24:21;95991.34;;;6.89;61.83
63019;BME280;49105;46.046;10.760;2023-02-21T10:27:04;95995.16;;;6.99;61.88
63019;BME280;49105;46.046;10.760;2023-02-21T10:32:04;95980.19;;;7.16;61.51
63019;BME280;49105;46.046;10.760;2023-02-21T10:34:31;95979.50;;;7.26;61.53
63019;BME280;49105;46.046;10.760;2023-02-21T10:43:35;95970.41;;;7.55;60.98
63019;BME280;49105;46.046;10.760;2023-02-21T10:46:46;95973.91;;;7.61;60.42
63019;BME280;49105;46.046;10.760;2023-02-21T10:52:15;95960.69;;;7.78;60.37
63019;BME280;49105;46.046;10.760;2023-02-21T10:57:23;95953.72;;;7.93;60.59
63019;BME280;49105;46.046;10.760;2023-02-21T10:59:49;95942.19;;;8.00;60.14
63019;BME280;49105;46.046;10.760;2023-02-21T11:02:40;95942.28;;;8.10;60.07
63019;BME280;49105;46.046;10.760;2023-02-21T11:05:15;95930.53;;;8.23;60.08
63019;BME280;49105;46.046;10.760;2023-02-21T11:08:06;95922.81;;;8.38;59.92
63019;BME280;49105;46.046;10.760;2023-02-21T11:10:38;95911.03;;;8.51;59.74
63019;BME280;49105;46.046;10.760;2023-02-21T11:13:16;95902.66;;;8.59;59.56
63019;BME280;49105;46.046;10.760;2023-02-21T11:16:17;95906.13;;;8.64;59.59
63019;BME280;49105;46.046;10.760;2023-02-21T11:18:43;95896.94;;;8.72;59.07
63019;BME280;49105;46.046;10.760;2023-02-21T11:21:17;95889.59;;;8.79;59.29
63019;BME280;49105;46.046;10.760;2023-02-21T11:23:56;95886.78;;;8.96;58.70
63019;BME280;49105;46.046;10.760;2023-02-21T11:26:35;95885.09;;;9.22;58.64
63019;BME280;49105;46.046;10.760;2023-02-21T11:29:12;95884.13;;;9.43;58.06
63019;BME280;49105;46.046;10.760;2023-02-21T11:31:38;95878.06;;;9.48;58.21
63019;BME280;49105;46.046;10.760;2023-02-21T11:34:09;95874.06;;;9.45;57.72
63019;BME280;49105;46.046;10.760;2023-02-21T11:36:41;95866.41;;;9.44;58.50
63019;BME280;49105;46.046;10.760;2023-02-21T11:39:18;95860.88;;;9.45;57.58
63019;BME280;49105;46.046;10.760;2023-02-21T11:42:04;95851.91;;;9.52;58.06
63019;BME280;49105;46.046;10.760;2023-02-21T11:44:48;95846.13;;;9.60;57.90
63019;BME280;49105;46.046;10.760;2023-02-21T11:47:20;95834.78;;;9.69;57.47
63019;BME280;49105;46.046;10.760;2023-02-21T11:52:41;95831.88;;;9.91;56.85
63019;BME280;49105;46.046;10.760;2023-02-21T11:55:17;95827.41;;;10.02;56.18
63019;BME280;49105;46.046;10.760;2023-02-21T11:58:24;95820.81;;;10.10;56.16
63019;BME280;49105;46.046;10.760;2023-02-21T12:04:24;95808.13;;;10.22;55.51
63019;BME280;49105;46.046;10.760;2023-02-21T12:15:23;95777.94;;;10.54;54.93
63019;BME280;49105;46.046;10.760;2023-02-21T12:18:04;95777.94;;;10.59;55.21
63019;BME280;49105;46.046;10.760;2023-02-21T12:45:32;95741.41;;;11.21;51.38
63019;BME280;49105;46.046;10.760;2023-02-21T12:48:11;95734.47;;;11.30;49.78
63019;BME280;49105;46.046;10.760;2023-02-21T12:50:42;95734.97;;;11.37;49.34
63019;BME280;49105;46.046;10.760;2023-02-21T12:53:19;95729.06;;;11.45;49.90
63019;BME280;49105;46.046;10.760;2023-02-21T12:56:05;95724.53;;;11.51;49.44
63019;BME280;49105;46.046;10.760;2023-02-21T12:58:42;95720.22;;;11.60;49.53
63019;BME280;49105;46.046;10.760;2023-02-21T13:01:14;95721.81;;;11.61;48.50
63019;BME280;49105;46.046;10.760;2023-02-21T13:06:54;95718.25;;;11.76;48.61
63019;BME280;49105;46.046;10.760;2023-02-21T13:09:37;95713.97;;;11.80;48.26
63019;BME280;49105;46.046;10.760;2023-02-21T13:12:13;95710.50;;;11.84;48.56
63019;BME280;49105;46.046;10.760;2023-02-21T13:14:53;95708.34;;;11.91;48.85
63019;BME280;49105;46.046;10.760;2023-02-21T13:17:20;95710.91;;;12.02;48.54
63019;BME280;49105;46.046;10.760;2023-02-21T13:19:59;95701.09;;;12.02;48.98
63019;BME280;49105;46.046;10.760;2023-02-21T13:27:49;95692.75;;;12.14;48.69
63019;BME280;49105;46.046;10.760;2023-02-21T13:30:37;95694.81;;;12.17;48.42
63019;BME280;49105;46.046;10.760;2023-02-21T13:33:04;95687.66;;;12.17;48.47
63019;BME280;49105;46.046;10.760;2023-02-21T13:35:36;95689.53;;;12.17;49.10
63019;BME280;49105;46.046;10.760;2023-02-21T13:38:11;95676.78;;;12.19;49.08
63019;BME280;49105;46.046;10.760;2023-02-21T13:40:50;95677.28;;;12.21;48.93
63019;BME280;49105;46.046;10.760;2023-02-21T13:43:31;95681.00;;;12.20;49.12
63019;BME280;49105;46.046;10.760;2023-02-21T13:51:51;95664.63;;;12.13;49.84
63019;BME280;49105;46.046;10.760;2023-02-21T13:54:22;95664.34;;;12.14;49.91
63019;BME280;49105;46.046;10.760;2023-02-21T13:56:49;95659.59;;;12.11;50.07
63019;BME280;49105;46.046;10.760;2023-02-21T14:02:36;95659.91;;;12.10;49.79
63019;BME280;49105;46.046;10.760;2023-02-21T14:05:04;95654.38;;;12.06;49.87
63019;BME280;49105;46.046;10.760;2023-02-21T14:07:42;95649.91;;;12.02;50.05
63019;BME280;49105;46.046;10.760;2023-02-21T14:10:25;95654.38;;;12.01;50.50
63019;BME280;49105;46.046;10.760;2023-02-21T14:13:17;95649.94;;;11.97;50.13
63019;BME280;49105;46.046;10.760;2023-02-21T14:15:48;95644.13;;;11.95;50.26
63019;BME280;49105;46.046;10.760;2023-02-21T14:21:00;95639.59;;;11.95;50.39
63019;BME280;49105;46.046;10.760;2023-02-21T14:23:40;95634.63;;;11.88;50.61
63019;BME280;49105;46.046;10.760;2023-02-21T14:26:38;95639.97;;;11.83;51.01
63019;BME280;49105;46.046;10.760;2023-02-21T14:49:38;95636.88;;;11.71;50.71
63019;BME280;49105;46.046;10.760;2023-02-21T14:55:33;95634.06;;;11.62;51.41
63019;BME280;49105;46.046;10.760;2023-02-21T15:03:24;95654.03;;;11.50;51.67
63019;BME280;49105;46.046;10.760;2023-02-21T15:08:42;95640.84;;;11.39;52.08
63019;BME280;49105;46.046;10.760;2023-02-21T15:11:28;95646.72;;;11.36;52.14
63019;BME280;49105;46.046;10.760;2023-02-21T15:14:31;95639.88;;;11.30;52.67
63019;BME280;49105;46.046;10.760;2023-02-21T15:16:59;95636.72;;;11.23;52.79
63019;BME280;49105;46.046;10.760;2023-02-21T15:19:33;95643.16;;;11.17;53.37
63019;BME280;49105;46.046;10.760;2023-02-21T15:22:18;95647.97;;;11.10;53.46
63019;BME280;49105;46.046;10.760;2023-02-21T15:30:27;95638.56;;;10.88;54.62
63019;BME280;49105;46.046;10.760;2023-02-21T15:33:11;95643.34;;;10.81;54.84
63019;BME280;49105;46.046;10.760;2023-02-21T15:39:25;95663.56;;;10.67;55.64
63019;BME280;49105;46.046;10.760;2023-02-21T15:41:53;95665.16;;;10.63;55.99
63019;BME280;49105;46.046;10.760;2023-02-21T15:44:37;95673.13;;;10.58;55.90
63019;BME280;49105;46.046;10.760;2023-02-21T15:47:10;95670.50;;;10.53;55.66
63019;BME280;49105;46.046;10.760;2023-02-21T15:49:45;95665.22;;;10.48;56.38
63019;BME280;49105;46.046;10.760;2023-02-21T15:52:34;95673.47;;;10.41;56.58
63019;BME280;49105;46.046;10.760;2023-02-21T15:57:45;95672.94;;;10.24;57.05
63019;BME280;49105;46.046;10.760;2023-02-21T16:02:49;95677.47;;;10.08;57.23
63019;BME280;49105;46.046;10.760;2023-02-21T16:05:26;95680.13;;;10.03;57.31
63019;BME280;49105;46.046;10.760;2023-02-21T16:07:51;95683.56;;;9.98;57.83
63019;BME280;49105;46.046;10.760;2023-02-21T16:10:23;95696.28;;;9.91;57.88
63019;BME280;49105;46.046;10.760;2023-02-21T16:13:01;95696.56;;;9.84;57.86
63019;BME280;49105;46.046;10.760;2023-02-21T16:15:30;95690.47;;;9.79;58.11
63019;BME280;49105;46.046;10.760;2023-02-21T16:18:03;95696.81;;;9.73;59.05
63019;BME280;49105;46.046;10.760;2023-02-21T16:20:37;95707.66;;;9.66;58.53
63019;BME280;49105;46.046;10.760;2023-02-21T16:28:35;95717.94;;;9.42;58.91
63019;BME280;49105;46.046;10.760;2023-02-21T16:31:13;95722.44;;;9.36;59.16
63019;BME280;49105;46.046;10.760;2023-02-21T16:33:39;95730.88;;;9.33;59.07
63019;BME280;49105;46.046;10.760;2023-02-21T16:36:08;95732.44;;;9.29;59.47
63019;BME280;49105;46.046;10.760;2023-02-21T16:38:40;95724.00;;;9.22;59.57
63019;BME280;49105;46.046;10.760;2023-02-21T16:41:12;95743.53;;;9.16;60.28
63019;BME280;49105;46.046;10.760;2023-02-21T16:43:47;95739.03;;;9.11;59.60
63019;BME280;49105;46.046;10.760;2023-02-21T16:46:24;95746.38;;;9.04;60.06